KFLP

Marion County Regional Airport

Flippin, Arkansas, USA
METAR KFLP 231556Z AUTO 04003KT 10SM SCT005 SCT010 BKN021 08/07 A3029 RMK AO2 SLP259 T00830067
Observed Flight Rules
Feb-23 @ 15:56 UTC (44 minutes ago) Marginal Visual Flight Rules
Wind Visibility Clouds
40° at 3 knots 10 miles
  • Scattered at 500' AGL
  • Scattered at 1,000' AGL
  • Broken at 2,100' AGL
Temperatures Readings
Current 8°C / 46°F
Dewpoint 7°C / 45°F
Humidity 93%
Altimeter 30.29" Hg
Pressure 1025.9 hPa
Elevation 219
METAR KFLP 231556Z AUTO 04003KT 10SM SCT005 SCT010 BKN021 08/07 A3029 RMK AO2 SLP259 T00830067
Observed Flight Rules
Feb-23 @ 15:56 UTC
(44 minutes ago)
MVFR
Wind Visibility
40° at 3 knots 10 miles
Clouds
  • Scattered at 500' AGL
  • Scattered at 1,000' AGL
  • Broken at 2,100' AGL
Temperature Dewpoint
8°C / 46°F 7°C / 45°F
Humidity Altimeter Pressure
93% 30.29" Hg 1025.9 hPa